Time;durP1;ratioP1;P1;durP2;ratioP2;P2;SDS_P1;SDS_P2;PMS_P1;PMS_P2;Temp;Humidity;BMP_temperature;BMP_pressure;BME280_temperature;BME280_humidity;BME280_pressure;Samples;Min_cycle;Max_cycle;Signal;HPM_P1;HPM_P2
2022/07/28 00:01:09;;;;;;;1.10;1.10;;;20.20;65.20;;;21.01;42.56;100675.06;5028009;28;20664;-66
2022/07/28 00:03:36;;;;;;;2.17;1.13;;;20.20;65.30;;;20.97;42.97;100668.47;5029979;28;20629;-65
2022/07/28 00:06:03;;;;;;;1.10;0.97;;;20.10;65.30;;;20.84;43.00;100671.69;5030397;28;20632;-66
2022/07/28 00:08:30;;;;;;;1.77;1.63;;;20.10;65.40;;;20.95;43.03;100671.28;5045546;22;20645;-71
2022/07/28 00:10:57;;;;;;;0.80;0.80;;;20.10;65.10;;;20.93;42.95;100660.03;5033918;28;20620;-71
2022/07/28 00:13:24;;;;;;;1.00;0.90;;;20.10;65.10;;;20.81;43.13;100670.22;5061876;28;20669;-71
2022/07/28 00:15:50;;;;;;;1.13;1.00;;;20.00;65.40;;;20.75;42.82;100681.53;5072077;28;21162;-71
2022/07/28 00:18:18;;;;;;;1.90;1.10;;;19.90;65.40;;;20.74;43.14;100679.06;5070806;28;20643;-71
2022/07/28 00:20:45;;;;;;;0.70;0.70;;;19.90;65.80;;;20.69;43.25;100679.56;5071788;28;20622;-71
2022/07/28 00:23:11;;;;;;;5.83;2.13;;;19.90;65.80;;;20.82;43.20;100679.84;5051750;28;20646;-71
2022/07/28 00:25:38;;;;;;;2.10;1.00;;;19.90;65.90;;;20.79;43.07;100674.88;5050130;28;20612;-71
2022/07/28 00:28:05;;;;;;;1.77;1.00;;;19.90;65.70;;;20.83;42.93;100670.88;5065572;28;21004;-71
2022/07/28 00:30:32;;;;;;;5.30;1.10;;;20.00;65.50;;;20.82;43.01;100663.91;5070338;28;20726;-71
2022/07/28 00:32:59;;;;;;;1.60;1.00;;;20.00;65.60;;;20.82;42.61;100663.09;5052506;28;20765;-72
2022/07/28 00:35:26;;;;;;;0.90;0.80;;;20.00;65.40;;;20.74;43.18;100677.19;5052693;28;20611;-71
2022/07/28 00:37:58;;;;;;;1.23;1.00;;;20.00;65.40;;;20.59;43.18;100662.22;5070493;28;20634;-71
2022/07/28 00:41:09;;;;;;;1.10;1.00;;;19.90;65.40;;;20.56;43.29;100670.53;5053338;28;20646;-71
2022/07/28 00:43:14;;;;;;;2.27;1.00;;;19.90;65.70;;;20.43;43.88;100668.44;5057479;28;21007;-71
2022/07/28 00:45:42;;;;;;;0.70;0.70;;;19.70;65.80;;;20.37;43.95;100663.81;5049918;28;21167;-71
2022/07/28 00:48:09;;;;;;;1.00;0.83;;;19.70;66.10;;;20.41;43.99;100664.28;5059757;28;20646;-71
2022/07/28 00:50:38;;;;;;;1.63;0.80;;;19.60;66.30;;;20.26;44.07;100655.41;5071199;28;20645;-71
2022/07/28 00:53:06;;;;;;;1.07;0.90;;;19.50;66.40;;;20.31;43.86;100661.03;5051196;28;20689;-71
2022/07/28 00:55:35;;;;;;;3.33;1.20;;;19.50;67.20;;;20.04;44.45;100652.47;5070099;28;20607;-71
2022/07/28 00:58:22;;;;;;;1.03;1.00;;;19.40;66.60;;;20.09;44.27;100654.63;5047403;28;20623;-71
2022/07/28 01:00:48;;;;;;;1.23;0.83;;;19.40;66.60;;;20.00;44.35;100656.47;5046635;28;21015;-71
2022/07/28 01:03:15;;;;;;;1.00;0.97;;;19.30;66.80;;;20.14;43.98;100653.09;5049875;28;20639;-71
2022/07/28 01:05:57;;;;;;;2.60;1.00;;;19.40;66.80;;;20.04;44.42;100651.66;5069888;28;20614;-71
2022/07/28 01:09:20;;;;;;;0.90;0.90;;;19.30;66.80;;;20.05;44.49;100653.31;5052480;28;20636;-71
2022/07/28 01:12:26;;;;;;;0.87;0.80;;;19.30;67.00;;;20.04;44.29;100651.66;5050176;28;20614;-71
2022/07/28 01:15:53;;;;;;;2.30;1.00;;;19.30;67.00;;;19.95;44.92;100652.69;5054382;28;20631;-70
2022/07/28 01:18:28;;;;;;;3.00;0.90;;;19.20;67.30;;;19.97;44.69;100645.41;5040027;28;20642;-68
2022/07/28 01:21:11;;;;;;;1.00;0.90;;;19.20;67.30;;;19.96;44.77;100641.09;5032345;28;21301;-71
2022/07/28 01:24:50;;;;;;;7.30;1.27;;;19.20;67.50;;;19.99;44.89;100644.25;5067720;28;20645;-72
2022/07/28 01:27:37;;;;;;;0.97;0.97;;;19.20;67.60;;;19.94;44.91;100629.84;4977213;28;20657;-69
2022/07/28 01:30:22;;;;;;;0.90;0.90;;;19.20;67.60;;;19.94;44.91;100640.44;5011942;28;20629;-69
2022/07/28 01:33:01;;;;;;;2.63;1.10;;;19.20;67.60;;;19.97;44.82;100630.34;5048098;28;20686;-71
2022/07/28 01:35:39;;;;;;;1.17;1.07;;;19.20;67.40;;;19.78;45.54;100636.00;5035956;28;20602;-68
2022/07/28 01:38:10;;;;;;;1.70;1.20;;;19.20;67.50;;;19.87;44.88;100640.28;5051620;28;20611;-71
2022/07/28 01:40:39;;;;;;;1.20;0.90;;;19.20;67.70;;;19.92;44.75;100632.66;5052962;28;20642;-71
2022/07/28 01:43:13;;;;;;;1.07;1.07;;;19.20;67.30;;;19.95;44.70;100637.59;5041672;28;20730;-71
2022/07/28 01:45:41;;;;;;;2.97;1.40;;;19.20;67.40;;;19.95;44.54;100627.00;5016723;28;20612;-71
2022/07/28 01:48:10;;;;;;;1.23;1.07;;;19.20;67.10;;;19.90;44.58;100632.00;5057367;28;20647;-71
2022/07/28 01:50:39;;;;;;;1.40;0.87;;;19.20;67.20;;;19.85;44.68;100633.50;5073002;28;20642;-72
2022/07/28 01:53:10;;;;;;;1.10;0.97;;;19.10;67.40;;;19.80;44.93;100634.03;5055280;28;20655;-71
2022/07/28 01:55:38;;;;;;;3.40;1.10;;;19.10;67.60;;;19.60;45.44;100631.91;5074707;28;20896;-71
2022/07/28 01:58:06;;;;;;;1.07;0.90;;;18.90;67.90;;;19.71;45.18;100624.44;5037706;28;20635;-70
2022/07/28 02:00:35;;;;;;;5.47;1.60;;;19.00;67.90;;;19.75;45.31;100620.47;5049788;28;21086;-71
2022/07/28 02:03:05;;;;;;;1.50;1.20;;;19.00;68.00;;;19.58;45.65;100620.66;5039626;28;20688;-71
2022/07/28 02:05:35;;;;;;;2.40;1.00;;;18.90;68.10;;;19.57;45.55;100614.53;5040734;28;20659;-69
2022/07/28 02:08:04;;;;;;;1.63;0.93;;;18.90;68.40;;;19.65;45.50;100609.25;5037661;28;20999;-70
2022/07/28 02:10:32;;;;;;;1.27;1.17;;;18.90;68.40;;;19.77;45.09;100613.19;5054605;28;21248;-71
2022/07/28 02:13:01;;;;;;;1.30;1.10;;;19.00;68.10;;;19.56;45.63;100609.41;5059176;28;20666;-71
2022/07/28 02:15:29;;;;;;;0.90;0.90;;;18.90;68.10;;;19.57;45.67;100606.59;5035408;28;20606;-67
2022/07/28 02:17:58;;;;;;;1.50;1.00;;;18.90;68.40;;;19.50;45.94;100612.75;5046220;28;20637;-71
2022/07/28 02:20:25;;;;;;;0.70;0.70;;;18.80;68.60;;;19.43;45.86;100607.28;5054255;28;20666;-71
2022/07/28 02:22:53;;;;;;;1.33;1.23;;;18.70;68.80;;;19.24;46.19;100600.50;5062091;28;20663;-71
2022/07/28 02:25:20;;;;;;;2.70;1.10;;;18.60;69.10;;;19.36;46.21;100608.94;5051382;28;20615;-72
2022/07/28 02:27:55;;;;;;;0.90;0.90;;;18.60;69.50;;;19.33;46.12;100598.69;5034179;28;20718;-67
2022/07/28 02:30:45;;;;;;;1.50;0.90;;;18.60;69.50;;;19.26;46.38;100601.16;5069000;28;20660;-72
2022/07/28 02:33:22;;;;;;;3.13;1.10;;;18.40;69.60;;;19.36;46.25;100590.44;5054857;28;21037;-69
2022/07/28 02:36:19;;;;;;;3.63;1.03;;;18.60;69.60;;;19.47;45.79;100590.09;5059367;28;20629;-71
2022/07/28 02:38:48;;;;;;;0.90;0.90;;;18.70;69.10;;;19.43;45.92;100588.78;5021298;28;20657;-71
2022/07/28 02:41:25;;;;;;;0.80;0.80;;;18.70;69.10;;;19.27;46.59;100581.63;5035383;28;20612;-71
2022/07/28 02:43:58;;;;;;;1.47;1.10;;;18.50;69.50;;;19.39;46.22;100581.34;5035418;28;20619;-72
2022/07/28 02:46:37;;;;;;;2.50;1.13;;;18.60;69.60;;;19.30;46.49;100583.13;5048379;28;20664;-71
2022/07/28 02:49:23;;;;;;;1.03;1.00;;;18.60;69.60;;;19.17;46.81;100577.53;5072961;28;21081;-71
2022/07/28 02:51:52;;;;;;;1.30;1.20;;;18.50;70.50;;;19.11;46.69;100573.72;5053780;28;20634;-71
2022/07/28 02:54:20;;;;;;;2.30;0.97;;;18.50;69.80;;;19.03;46.74;100571.09;5054882;28;20659;-71
2022/07/28 02:56:49;;;;;;;1.00;0.90;;;18.40;69.80;;;19.08;46.74;100571.41;5045600;28;21160;-71
2022/07/28 02:59:20;;;;;;;1.53;1.20;;;18.40;69.80;;;19.09;46.77;100566.97;5052134;28;20636;-68
2022/07/28 03:01:48;;;;;;;1.30;0.93;;;18.40;70.00;;;19.16;46.57;100571.44;5033551;28;20632;-71
2022/07/28 03:04:55;;;;;;;6.53;1.20;;;18.40;70.10;;;19.11;46.96;100573.72;5034594;28;20623;-71
2022/07/28 03:07:05;;;;;;;5.60;1.00;;;18.40;70.20;;;19.26;46.47;100568.59;5037310;28;20660;-71
2022/07/28 03:09:45;;;;;;;1.37;0.90;;;18.50;70.00;;;19.22;46.82;100564.63;5058695;28;20663;-71
2022/07/28 03:12:13;;;;;;;1.57;0.90;;;18.50;70.00;;;19.22;46.80;100568.13;5071776;28;21280;-70
2022/07/28 03:14:40;;;;;;;3.60;1.30;;;18.50;70.10;;;19.38;46.20;100572.56;5053948;28;20655;-71
2022/07/28 03:17:07;;;;;;;1.57;1.13;;;18.60;69.80;;;19.44;46.17;100568.44;5071730;28;20627;-70
2022/07/28 03:19:35;;;;;;;1.00;1.00;;;18.60;69.50;;;19.52;45.88;100590.41;5072660;28;20722;-71
2022/07/28 03:22:03;;;;;;;0.97;0.97;;;18.70;69.60;;;19.37;45.95;100589.44;5054006;28;20647;-71
2022/07/28 03:24:35;;;;;;;4.27;1.20;;;18.60;69.80;;;19.29;46.63;100587.59;5053569;28;20631;-71
2022/07/28 03:27:28;;;;;;;2.33;1.00;;;18.50;70.10;;;19.18;47.03;100584.47;5040237;28;20636;-70
2022/07/28 03:30:03;;;;;;;0.90;0.90;;;18.40;70.30;;;19.01;47.21;100588.94;5028795;28;21039;-70
2022/07/28 03:32:33;;;;;;;2.17;1.20;;;18.30;70.70;;;19.16;47.08;100583.81;5054723;28;20883;-71
2022/07/28 03:35:00;;;;;;;1.23;1.00;;;18.30;70.90;;;19.13;46.96;100590.25;5042632;28;20663;-71
2022/07/28 03:37:37;;;;;;;0.97;0.97;;;18.40;70.80;;;19.11;47.19;100586.13;5071001;28;20611;-71
2022/07/28 03:40:09;;;;;;;1.83;1.00;;;18.30;71.00;;;18.81;48.07;100586.78;5060985;28;20659;-71
2022/07/28 03:42:38;;;;;;;1.60;0.80;;;18.10;71.40;;;18.79;47.85;100584.31;5032925;28;20652;-71
2022/07/28 03:45:06;;;;;;;1.23;1.00;;;18.10;71.80;;;18.90;48.03;100585.78;5042228;28;20640;-71
2022/07/28 03:47:32;;;;;;;1.07;1.07;;;18.10;71.80;;;18.97;47.58;100573.56;5047320;28;21254;-70
2022/07/28 03:49:59;;;;;;;1.60;0.90;;;18.10;71.70;;;18.85;47.61;100583.63;5053119;28;21002;-72
2022/07/28 03:52:26;;;;;;;5.70;1.17;;;18.10;71.80;;;19.01;47.54;100578.38;5071576;28;20950;-71
2022/07/28 03:54:53;;;;;;;5.60;0.80;;;18.20;71.80;;;19.11;47.42;100583.47;5044498;28;21010;-71
2022/07/28 03:57:21;;;;;;;1.07;0.90;;;18.20;71.70;;;18.89;47.80;100587.59;5033948;28;20632;-71
2022/07/28 03:59:48;;;;;;;3.53;1.30;;;18.20;71.70;;;18.76;48.09;100591.75;5036271;28;20662;-71
2022/07/28 04:02:15;;;;;;;1.20;1.10;;;18.00;72.10;;;18.86;48.01;100585.31;5039021;28;20626;-70
2022/07/28 04:04:42;;;;;;;1.00;1.00;;;18.00;72.30;;;18.92;47.88;100578.53;5056058;28;20627;-71
2022/07/28 04:07:09;;;;;;;1.10;1.10;;;18.10;72.30;;;18.92;48.04;100583.81;5049916;28;20731;-71
2022/07/28 04:09:36;;;;;;;0.90;0.90;;;18.00;72.60;;;19.05;47.72;100576.22;5050237;28;20652;-72
2022/07/28 04:12:03;;;;;;;1.00;1.00;;;18.20;72.30;;;18.96;48.10;100571.91;5032331;28;21007;-69
2022/07/28 04:14:30;;;;;;;0.90;0.90;;;18.10;72.50;;;18.89;48.03;100584.16;5051956;28;20702;-71
2022/07/28 04:16:57;;;;;;;0.80;0.80;;;18.10;72.30;;;18.84;48.22;100578.53;5062460;28;20735;-71
2022/07/28 04:19:24;;;;;;;0.73;0.73;;;18.00;72.70;;;19.03;47.88;100591.41;5053956;28;20636;-71
2022/07/28 04:21:51;;;;;;;4.97;1.27;;;18.10;72.90;;;18.81;48.42;100581.47;5064044;28;20643;-71
2022/07/28 04:24:18;;;;;;;2.10;1.00;;;18.00;73.10;;;18.89;48.49;100584.16;5034221;28;20607;-71
2022/07/28 04:26:45;;;;;;;2.50;1.10;;;18.00;73.30;;;19.07;47.83;100588.28;5049705;28;20636;-71
2022/07/28 04:29:12;;;;;;;1.33;0.90;;;18.10;73.00;;;19.12;47.69;100577.22;5016759;28;20671;-71
2022/07/28 04:31:49;;;;;;;0.90;0.90;;;18.20;72.80;;;19.22;47.48;100583.16;5051129;28;20619;-71
2022/07/28 04:34:16;;;;;;;1.03;0.93;;;18.30;72.40;;;19.11;47.54;100579.03;5053638;28;21206;-71
2022/07/28 04:36:43;;;;;;;1.27;0.90;;;18.30;72.30;;;19.21;47.66;100582.31;5054008;28;20603;-71
2022/07/28 04:39:10;;;;;;;0.93;0.93;;;18.30;72.60;;;19.17;47.64;100580.16;5068201;28;20639;-71
2022/07/28 04:41:38;;;;;;;1.10;0.80;;;18.30;72.60;;;19.03;47.87;100580.84;5053935;28;20627;-71
2022/07/28 04:44:05;;;;;;;1.40;0.97;;;18.20;72.60;;;19.12;47.75;100577.22;5049969;28;20611;-71
2022/07/28 04:46:34;;;;;;;1.33;0.80;;;18.20;73.00;;;18.84;48.41;100579.34;5044509;28;20633;-70
2022/07/28 04:49:02;;;;;;;2.47;0.97;;;18.00;73.10;;;19.00;48.05;100567.94;5069803;28;20689;-70
2022/07/28 04:51:29;;;;;;;1.30;1.20;;;18.00;73.40;;;19.08;48.06;100575.91;5064135;28;21207;-70
2022/07/28 04:53:56;;;;;;;1.07;1.07;;;18.10;73.40;;;19.07;47.62;100584.81;5032838;28;20656;-70
2022/07/28 04:56:23;;;;;;;0.80;0.80;;;18.10;72.90;;;19.07;47.80;100580.34;5031765;28;21002;-70
2022/07/28 04:58:51;;;;;;;1.33;1.03;;;18.20;73.00;;;19.12;47.58;100574.56;5032323;28;20658;-71
2022/07/28 05:01:20;;;;;;;2.13;1.23;;;18.20;73.40;;;19.14;48.14;100580.50;5058064;28;20631;-71
2022/07/28 05:03:47;;;;;;;2.10;1.00;;;18.20;73.30;;;19.23;47.65;100585.63;5059670;28;21053;-72
2022/07/28 05:06:14;;;;;;;0.80;0.80;;;18.20;73.10;;;19.38;47.35;100585.78;5069859;28;20993;-70
2022/07/28 05:08:41;;;;;;;2.40;1.10;;;18.30;73.10;;;19.40;47.03;100585.66;5069084;28;20643;-69
2022/07/28 05:11:08;;;;;;;1.00;0.90;;;18.40;72.70;;;19.61;46.93;100589.41;5071219;28;20611;-71
2022/07/28 05:13:35;;;;;;;1.27;0.90;;;18.60;72.60;;;19.46;47.18;100587.63;5057080;28;20642;-72
2022/07/28 05:16:02;;;;;;;1.50;1.00;;;18.60;72.40;;;19.59;46.69;100579.97;5050244;28;20616;-71
2022/07/28 05:18:29;;;;;;;1.00;1.00;;;18.60;72.40;;;19.77;46.68;100583.22;5049126;28;20622;-70
2022/07/28 05:20:56;;;;;;;1.10;1.00;;;18.70;72.50;;;19.85;46.39;100586.66;5051678;28;20977;-71
2022/07/28 05:23:23;;;;;;;1.20;1.20;;;18.80;72.10;;;19.79;46.67;100578.59;5050316;28;20624;-70
2022/07/28 05:25:50;;;;;;;1.90;1.03;;;18.80;72.10;;;20.01;45.95;100586.63;5057845;28;21048;-69
2022/07/28 05:28:17;;;;;;;3.90;1.60;;;18.90;71.80;;;19.95;45.96;100584.63;5044957;28;20757;-70
2022/07/28 05:30:44;;;;;;;0.90;0.90;;;19.00;71.90;;;19.92;46.13;100590.28;5053024;28;20615;-71
2022/07/28 05:33:14;;;;;;;1.40;1.13;;;18.90;71.70;;;20.04;46.08;100591.56;5052887;28;21210;-71
2022/07/28 05:35:41;;;;;;;4.30;1.10;;;19.00;72.00;;;20.34;45.49;100589.13;5035654;28;20658;-71
2022/07/28 05:38:08;;;;;;;2.80;1.07;;;19.20;71.60;;;20.49;44.91;100585.56;5054600;28;20639;-70
2022/07/28 05:40:37;;;;;;;1.10;1.00;;;19.40;71.00;;;20.88;44.43;100588.13;5053968;28;20687;-71
2022/07/28 05:43:03;;;;;;;1.70;1.10;;;19.70;70.30;;;21.05;43.98;100584.38;5053866;28;20604;-68
2022/07/28 05:45:32;;;;;;;1.30;1.10;;;19.90;69.70;;;21.44;43.22;100590.31;5053810;28;20979;-70
2022/07/28 05:47:59;;;;;;;2.40;0.83;;;20.20;69.30;;;22.08;41.85;100603.91;5036616;28;20640;-71
2022/07/28 05:50:26;;;;;;;1.73;1.10;;;20.70;68.40;;;22.59;41.05;100597.59;5035531;28;20640;-71
2022/07/28 05:52:53;;;;;;;3.23;1.30;;;21.10;67.30;;;22.75;40.24;100597.34;5058296;28;20653;-71
2022/07/28 05:55:20;;;;;;;1.80;0.93;;;21.40;66.10;;;23.21;39.11;100599.59;5065972;28;20659;-71
2022/07/28 05:57:47;;;;;;;1.57;0.90;;;21.80;65.00;;;23.42;39.03;100596.94;5044445;28;20639;-71
2022/07/28 06:00:21;;;;;;;1.30;0.97;;;22.00;64.60;;;23.79;38.65;100608.03;5052243;28;20731;-71
2022/07/28 06:02:49;;;;;;;2.03;1.00;;;22.40;64.10;;;23.69;38.29;100598.75;5034082;28;20997;-71
2022/07/28 06:05:21;;;;;;;1.77;1.10;;;22.40;63.50;;;24.05;37.79;100590.56;5056554;28;20626;-71
2022/07/28 06:07:50;;;;;;;1.63;1.07;;;22.60;63.20;;;24.68;37.05;100598.19;5035061;28;20619;-70
2022/07/28 06:10:21;;;;;;;1.63;0.90;;;22.90;62.60;;;25.40;35.62;100603.59;5056093;28;21301;-73
2022/07/28 06:12:54;;;;;;;1.13;1.03;;;23.40;61.90;;;25.63;34.39;100604.00;5073247;28;20633;-73
2022/07/28 06:15:25;;;;;;;1.80;0.90;;;23.80;60.70;;;25.90;34.32;100605.56;5053647;28;20759;-72
2022/07/28 06:17:54;;;;;;;1.70;1.03;;;23.90;60.40;;;26.30;33.84;100610.81;5069271;28;20953;-71
2022/07/28 06:20:24;;;;;;;3.43;1.10;;;24.20;59.90;;;25.70;34.83;100607.47;5072836;28;20642;-70
2022/07/28 06:22:53;;;;;;;1.47;1.30;;;24.00;59.80;;;25.20;35.56;100606.25;5058929;28;20611;-71
2022/07/28 06:25:23;;;;;;;0.90;0.90;;;23.80;60.20;;;24.73;36.07;100609.03;5064903;28;20655;-71
2022/07/28 06:27:54;;;;;;;1.03;1.00;;;23.40;60.70;;;24.39;36.84;100604.66;5061260;28;20643;-71
2022/07/28 06:30:21;;;;;;;1.53;1.20;;;23.10;61.40;;;23.79;38.19;100601.88;5045905;28;20650;-68
2022/07/28 06:32:49;;;;;;;1.20;1.13;;;22.80;62.20;;;23.67;38.67;100614.09;5070529;28;20646;-71
2022/07/28 06:35:16;;;;;;;1.93;1.03;;;22.50;62.90;;;23.54;38.98;100604.19;5053605;28;20657;-71
2022/07/28 06:37:48;;;;;;;2.73;1.53;;;22.30;63.60;;;23.25;39.57;100593.72;5055455;28;20697;-72
2022/07/28 06:40:17;;;;;;;1.00;1.00;;;22.10;63.60;;;23.09;39.85;100608.09;5052339;28;20635;-72
2022/07/28 06:42:45;;;;;;;1.20;1.10;;;21.90;64.40;;;22.95;40.32;100603.69;5067306;28;20638;-70
2022/07/28 06:45:13;;;;;;;4.00;1.60;;;21.80;64.90;;;22.82;40.60;100602.72;5059640;28;20632;-71
2022/07/28 06:47:49;;;;;;;1.43;1.20;;;21.60;65.60;;;23.56;39.32;100596.00;5051509;28;20635;-72
2022/07/28 06:50:16;;;;;;;1.20;0.90;;;21.80;65.20;;;23.69;38.80;100601.41;5034098;28;20660;-73
2022/07/28 06:52:54;;;;;;;1.07;1.07;;;21.90;64.90;;;24.17;38.20;100602.31;5035548;28;20620;-69
2022/07/28 06:55:21;;;;;;;2.97;1.30;;;22.30;65.00;;;26.04;35.71;100609.84;5044459;28;20700;-69
2022/07/28 06:57:48;;;;;;;1.67;0.90;;;23.20;63.70;;;28.15;31.50;100612.63;5038711;28;20620;-67
2022/07/28 07:00:15;;;;;;;5.93;1.20;;;24.60;61.00;;;27.77;32.00;100607.44;5047928;28;20710;-69
2022/07/28 07:02:42;;;;;;;1.20;1.20;;;24.90;59.30;;;27.49;32.10;100599.09;5050682;28;20635;-71
2022/07/28 07:05:11;;;;;;;1.13;1.07;;;25.00;58.70;;;26.65;33.51;100614.72;5046223;28;20996;-72
2022/07/28 07:07:37;;;;;;;2.23;1.87;;;24.70;58.90;;;26.08;34.70;100607.59;5042377;28;20642;-70
2022/07/28 07:10:10;;;;;;;2.47;1.53;;;24.40;59.60;;;26.63;33.94;100608.75;5050628;28;20657;-70
2022/07/28 07:12:37;;;;;;;3.17;1.20;;;24.60;59.70;;;28.81;30.38;100605.38;5050990;28;20719;-70
2022/07/28 07:15:05;;;;;;;5.73;1.40;;;25.70;58.20;;;30.82;27.86;100609.00;5067412;28;20754;-69
2022/07/28 07:17:32;;;;;;;1.60;1.17;;;27.10;56.40;;;31.21;27.65;100604.56;5053419;28;20747;-66
2022/07/28 07:19:58;;;;;;;1.00;1.00;;;27.50;55.80;;;32.74;25.67;100601.72;5033536;28;20631;-69
2022/07/28 07:22:25;;;;;;;1.53;1.17;;;28.50;54.60;;;33.03;24.99;100600.38;5051824;28;20624;-70
2022/07/28 07:24:53;;;;;;;2.60;1.20;;;28.90;53.30;;;33.88;23.90;100602.03;5050546;28;20653;-71
2022/07/28 07:27:23;;;;;;;1.13;1.10;;;29.50;52.60;;;34.55;23.07;100600.13;5052090;28;20624;-71
2022/07/28 07:29:50;;;;;;;1.93;1.30;;;30.10;51.70;;;35.22;22.42;100601.81;5060449;28;20655;-70
2022/07/28 07:32:17;;;;;;;1.80;1.30;;;30.50;51.00;;;35.44;22.37;100592.28;5061830;28;20731;-71
2022/07/28 07:34:44;;;;;;;1.40;1.30;;;31.00;50.10;;;35.36;22.88;100606.41;5033719;28;20654;-71
2022/07/28 07:37:13;;;;;;;1.43;1.33;;;31.20;49.80;;;35.02;22.94;100602.66;5051104;28;20608;-71
2022/07/28 07:39:41;;;;;;;1.20;1.10;;;31.20;49.40;;;35.13;22.05;100608.88;5050832;28;21015;-71
2022/07/28 07:42:08;;;;;;;2.57;1.30;;;31.20;49.40;;;35.40;22.52;100602.06;5050764;28;20640;-71
2022/07/28 07:44:35;;;;;;;5.23;1.23;;;31.00;49.60;;;37.05;20.87;100596.16;5032542;28;20600;-71
2022/07/28 07:47:03;;;;;;;6.13;1.70;;;31.80;48.80;;;36.76;20.82;100598.78;5047623;28;20646;-71
2022/07/28 07:49:30;;;;;;;1.63;1.30;;;31.80;48.80;;;36.90;20.81;100599.00;5030985;28;20644;-71
2022/07/28 07:52:13;;;;;;;6.23;1.63;;;31.80;48.40;;;38.59;19.72;100596.53;5042120;28;20621;-71
2022/07/28 07:54:40;;;;;;;1.30;1.20;;;32.80;48.70;;;37.62;20.36;100593.41;5052861;28;21094;-72
2022/07/28 07:57:08;;;;;;;2.43;1.77;;;32.90;47.20;;;35.10;22.58;100592.06;5062352;28;21225;-70
2022/07/28 07:59:36;;;;;;;1.20;1.10;;;31.60;47.90;;;35.30;22.25;100587.72;5050206;28;20632;-70
2022/07/28 08:02:03;;;;;;;4.40;1.47;;;31.20;48.90;;;35.94;21.83;100587.81;5035799;28;21002;-71
2022/07/28 08:04:30;;;;;;;3.00;1.40;;;31.40;49.00;;;38.15;19.70;100585.97;5051528;28;20715;-71
2022/07/28 08:07:03;;;;;;;2.53;1.40;;;32.30;48.20;;;39.57;18.63;100600.91;5033753;28;20616;-69
2022/07/28 08:09:30;;;;;;;5.03;1.50;;;33.40;46.90;;;40.64;17.63;100599.13;5050903;28;20738;-68
2022/07/28 08:11:56;;;;;;;2.63;1.33;;;34.10;46.30;;;41.13;17.13;100594.66;5069047;28;21018;-69
2022/07/28 08:14:24;;;;;;;3.17;1.43;;;34.40;45.60;;;41.38;17.10;100599.50;5064093;28;20724;-72
2022/07/28 08:16:51;;;;;;;1.83;1.40;;;34.90;45.40;;;42.26;16.36;100596.41;5039894;28;20635;-69
2022/07/28 08:19:18;;;;;;;1.50;1.40;;;35.40;44.90;;;42.51;16.48;100583.06;5049719;28;21139;-68
2022/07/28 08:21:47;;;;;;;1.40;1.30;;;35.60;44.50;;;43.40;15.74;100599.53;5049335;28;20648;-69
2022/07/28 08:24:14;;;;;;;2.60;1.43;;;36.40;43.90;;;43.85;15.07;100598.66;5032615;28;20632;-69
2022/07/28 08:26:57;;;;;;;1.50;1.33;;;36.90;43.20;;;41.87;16.78;100590.97;5046677;28;20669;-68
2022/07/28 08:29:24;;;;;;;3.03;1.50;;;36.30;43.50;;;41.50;17.07;100591.50;5040025;28;20635;-69
2022/07/28 08:31:51;;;;;;;2.40;2.20;;;36.00;43.70;;;41.19;17.20;100588.72;5039808;28;21016;-70
2022/07/28 08:34:18;;;;;;;7.73;2.10;;;35.80;43.90;;;39.69;18.68;100576.63;5038898;28;20623;-71
2022/07/28 08:37:02;;;;;;;1.40;1.40;;;35.10;44.30;;;37.27;20.11;100569.25;5048117;28;21142;-70
2022/07/28 08:39:31;;;;;;;1.67;1.57;;;33.60;44.90;;;37.16;20.33;100562.31;5048183;28;20679;-67
2022/07/28 08:42:17;;;;;;;1.80;1.70;;;33.00;45.90;;;38.37;19.77;100572.59;5047039;28;20612;-71
2022/07/28 08:44:57;;;;;;;7.50;2.10;;;32.70;46.70;;;41.67;17.18;100575.16;5031623;28;21183;-71
2022/07/28 08:47:31;;;;;;;1.53;1.50;;;34.30;45.40;;;43.25;15.71;100575.34;5024029;28;21202;-71
2022/07/28 08:50:13;;;;;;;2.53;1.60;;;35.50;44.30;;;42.88;16.08;100574.13;5014224;28;20680;-70
2022/07/28 08:52:44;;;;;;;2.03;1.80;;;36.20;43.50;;;43.35;15.90;100580.47;5029926;28;20621;-70
2022/07/28 08:55:14;;;;;;;9.00;1.63;;;36.50;44.00;;;43.37;15.65;100573.53;5066511;28;20663;-71
2022/07/28 08:57:45;;;;;;;1.67;1.57;;;36.70;43.60;;;45.43;14.52;100577.38;5039174;28;20608;-71
2022/07/28 09:00:12;;;;;;;1.50;1.50;;;37.80;42.50;;;47.48;12.95;100577.47;5050628;28;20631;-71
2022/07/28 09:02:46;;;;;;;1.80;1.70;;;39.10;42.00;;;48.75;12.04;100579.47;5051639;28;21065;-71
2022/07/28 09:05:22;;;;;;;1.83;1.73;;;40.20;40.90;;;48.66;11.88;100570.59;5059486;28;20627;-71
2022/07/28 09:07:53;;;;;;;4.43;2.10;;;40.50;39.80;;;49.81;11.64;100564.63;5067585;28;20611;-71
2022/07/28 09:10:22;;;;;;;2.83;2.00;;;41.00;39.70;;;49.83;11.21;100567.88;5050451;28;21090;-67
2022/07/28 09:12:49;;;;;;;1.70;1.70;;;41.20;39.10;;;49.84;10.85;100552.84;5070516;28;20718;-73
2022/07/28 09:15:16;;;;;;;2.37;1.60;;;41.20;39.00;;;50.04;11.28;100555.09;5069723;28;20673;-71
2022/07/28 09:17:43;;;;;;;2.13;1.97;;;41.00;39.30;;;49.66;11.61;100556.13;5068654;28;21259;-71
2022/07/28 09:20:10;;;;;;;2.40;1.70;;;41.20;40.00;;;50.77;11.30;100551.59;5069026;28;20631;-71
2022/07/28 09:23:03;;;;;;;1.70;1.70;;;42.00;39.00;;;49.98;11.48;100544.69;5049522;28;20639;-68
2022/07/28 09:25:30;;;;;;;2.13;2.03;;;42.00;38.30;;;51.02;11.11;100533.19;5036918;28;21177;-69
2022/07/28 09:28:14;;;;;;;2.03;1.93;;;42.30;38.30;;;50.90;10.23;100547.38;5037586;28;20640;-72
2022/07/28 09:30:48;;;;;;;2.03;1.93;;;42.20;38.20;;;51.44;10.02;100543.03;5049754;28;21182;-71
2022/07/28 09:33:26;;;;;;;2.13;2.03;;;42.60;37.90;;;51.54;10.29;100547.91;5049967;28;20621;-70
2022/07/28 09:36:14;;;;;;;2.20;2.03;;;43.00;37.70;;;49.71;11.31;100538.38;5049978;28;20710;-71
2022/07/28 09:38:42;;;;;;;3.47;2.13;;;42.20;37.90;;;48.58;12.16;100533.66;5033062;28;20640;-71
2022/07/28 09:41:09;;;;;;;2.07;1.97;;;41.50;38.20;;;48.87;12.28;100532.25;5048152;28;20659;-71
2022/07/28 09:43:38;;;;;;;2.23;2.10;;;41.20;38.60;;;48.81;12.12;100530.94;5053061;28;21011;-70
2022/07/28 09:46:13;;;;;;;1.83;1.70;;;41.00;38.50;;;50.26;11.08;100526.44;5043401;28;20722;-73
2022/07/28 09:48:49;;;;;;;1.83;1.73;;;41.70;38.40;;;50.06;11.12;100524.16;5046092;28;20650;-71
2022/07/28 09:51:34;;;;;;;2.07;1.97;;;41.90;38.00;;;51.27;11.00;100529.81;5069532;28;21232;-73
2022/07/28 09:54:14;;;;;;;2.23;2.13;;;42.70;37.70;;;51.01;10.34;100517.69;5051194;28;20627;-71
2022/07/28 09:56:44;;;;;;;1.83;1.77;;;42.90;37.40;;;48.68;12.13;100501.81;5069900;28;20666;-72
2022/07/28 09:59:12;;;;;;;1.90;1.80;;;41.60;37.90;;;44.99;14.49;100497.19;5031000;28;20641;-71
2022/07/28 10:01:53;;;;;;;6.80;2.70;;;39.90;38.60;;;41.87;17.01;100491.53;5063122;28;20631;-71
2022/07/28 10:04:39;;;;;;;2.27;1.93;;;37.90;40.30;;;41.11;17.85;100485.50;5069372;28;20993;-71
2022/07/28 10:07:13;;;;;;;3.03;2.20;;;36.90;41.40;;;41.30;17.94;100488.00;5053826;28;20644;-73
2022/07/28 10:09:40;;;;;;;1.80;1.80;;;36.20;42.10;;;41.18;17.85;100485.84;5044131;28;20682;-71
2022/07/28 10:12:19;;;;;;;2.07;1.97;;;36.20;42.30;;;41.23;18.56;100473.94;5056347;28;20631;-71
2022/07/28 10:14:49;;;;;;;2.60;2.40;;;36.20;42.50;;;42.45;17.26;100480.88;5055183;28;20985;-71
2022/07/28 10:17:31;;;;;;;2.40;2.30;;;36.40;42.20;;;41.86;17.63;100471.53;5073339;28;20606;-71
2022/07/28 10:20:05;;;;;;;2.53;2.33;;;36.50;42.20;;;40.27;18.62;100457.31;5055983;28;21250;-71
2022/07/28 10:22:36;;;;;;;2.20;2.10;;;35.70;42.40;;;38.62;19.97;100456.88;5062938;28;20628;-71
2022/07/28 10:25:13;;;;;;;2.47;2.30;;;35.00;43.50;;;37.97;21.03;100456.81;5036683;28;20681;-72
2022/07/28 10:27:41;;;;;;;3.17;2.30;;;34.30;44.00;;;37.73;21.50;100450.59;5053998;28;20742;-71
2022/07/28 10:30:10;;;;;;;2.97;2.50;;;34.20;44.40;;;37.55;21.44;100448.66;5071825;28;20757;-71